createdAt,value
2018-09-27T00:00:02.265Z,69.53
2018-09-27T00:01:02.257Z,67.90
2018-09-27T00:02:02.282Z,67.90
2018-09-27T00:03:02.231Z,66.47
2018-09-27T00:04:02.228Z,66.27
2018-09-27T00:05:02.208Z,66.57
2018-09-27T00:06:02.199Z,66.88
2018-09-27T00:07:02.187Z,67.49
2018-09-27T00:08:02.199Z,68.81
2018-09-27T00:09:02.168Z,68.81
2018-09-27T00:10:02.154Z,67.46
2018-09-27T00:11:02.149Z,67.18
2018-09-27T00:12:02.134Z,66.88
2018-09-27T00:13:02.125Z,66.47
2018-09-27T00:14:02.126Z,67.59
2018-09-27T00:15:02.115Z,69.09
2018-09-27T00:16:02.100Z,68.17
2018-09-27T00:17:02.078Z,67.86
2018-09-27T00:18:02.071Z,67.69
2018-09-27T00:19:02.059Z,67.55
2018-09-27T00:20:02.069Z,66.27
2018-09-27T00:21:02.034Z,65.22
2018-09-27T00:22:02.025Z,65.45
2018-09-27T00:23:02.016Z,66.97
2018-09-27T00:24:02.004Z,66.94
2018-09-27T00:25:01.993Z,67.46
2018-09-27T00:26:01.994Z,67.05
2018-09-27T00:27:01.968Z,66.85
2018-09-27T00:28:01.958Z,66.16
2018-09-27T00:29:01.947Z,66.77
2018-09-27T00:30:01.938Z,68.37
2018-09-27T00:31:01.941Z,66.74
2018-09-27T00:32:01.913Z,67.35
2018-09-27T00:33:01.903Z,67.79
2018-09-27T00:34:01.892Z,66.27
2018-09-27T00:35:01.895Z,66.44
2018-09-27T00:36:01.870Z,67.35
2018-09-27T00:37:01.875Z,66.03
2018-09-27T00:38:01.849Z,66.94
2018-09-27T00:39:01.837Z,68.27
2018-09-27T00:40:01.828Z,65.42
2018-09-27T00:41:01.818Z,65.42
2018-09-27T00:42:01.819Z,66.13
2018-09-27T00:43:01.796Z,67.05
2018-09-27T00:44:01.782Z,67.05
2018-09-27T00:45:01.773Z,67.05
2018-09-27T00:46:01.778Z,66.94
2018-09-27T00:47:01.769Z,67.25
2018-09-27T00:48:01.743Z,65.62
2018-09-27T00:49:01.731Z,65.11
2018-09-27T00:50:01.717Z,64.70
2018-09-27T00:51:01.731Z,64.81
2018-09-27T00:52:01.713Z,64.90
2018-09-27T00:53:01.686Z,67.49
2018-09-27T00:54:01.674Z,65.31
2018-09-27T00:55:01.664Z,65.11
2018-09-27T00:56:01.650Z,65.31
2018-09-27T00:57:01.641Z,65.72
2018-09-27T00:58:01.645Z,65.55
2018-09-27T00:59:01.619Z,64.84
2018-09-27T01:00:01.607Z,66.03
2018-09-27T01:01:01.597Z,66.44
2018-09-27T01:02:01.584Z,66.33
2018-09-27T01:03:01.591Z,66.13
2018-09-27T01:04:01.562Z,65.72
2018-09-27T01:05:01.552Z,66.94
2018-09-27T01:06:01.541Z,66.64
2018-09-27T01:07:01.531Z,65.62
2018-09-27T01:08:01.519Z,65.62
2018-09-27T01:09:01.523Z,66.23
2018-09-27T01:10:01.496Z,66.33
2018-09-27T01:11:01.485Z,66.44
2018-09-27T01:12:01.478Z,65.11
2018-09-27T01:13:01.481Z,65.92
2018-09-27T01:14:01.451Z,66.13
2018-09-27T01:15:01.466Z,67.35
2018-09-27T01:16:01.432Z,66.33
2018-09-27T01:17:01.419Z,66.94
2018-09-27T01:18:01.409Z,66.94
2018-09-27T01:19:01.412Z,67.46
2018-09-27T01:20:01.388Z,66.74
2018-09-27T01:21:01.376Z,65.62
2018-09-27T01:22:01.365Z,66.54
2018-09-27T01:23:01.362Z,66.94
2018-09-27T01:24:01.365Z,65.62
2018-09-27T01:25:01.331Z,65.62
2018-09-27T01:26:01.323Z,66.13
2018-09-27T01:27:02.130Z,65.83
2018-09-27T01:28:02.168Z,64.81
2018-09-27T01:29:01.287Z,65.01
2018-09-27T01:30:01.293Z,64.60
2018-09-27T01:31:01.265Z,64.90
2018-09-27T01:32:01.255Z,65.72
2018-09-27T01:33:01.242Z,66.44
2018-09-27T01:34:01.243Z,65.83
2018-09-27T01:35:01.238Z,66.44
2018-09-27T01:36:01.212Z,67.46
2018-09-27T01:37:01.202Z,66.33
2018-09-27T01:38:01.190Z,66.54
2018-09-27T01:39:01.177Z,65.11
2018-09-27T01:40:01.185Z,64.90
2018-09-27T01:41:01.154Z,65.62
2018-09-27T01:42:01.143Z,65.62
2018-09-27T01:43:01.133Z,65.11
2018-09-27T01:44:01.122Z,65.45
2018-09-27T01:45:01.114Z,65.45
2018-09-27T01:46:01.142Z,65.22
2018-09-27T01:47:01.118Z,65.62
2018-09-27T01:48:01.082Z,65.72
2018-09-27T01:49:01.067Z,64.94
2018-09-27T01:50:01.061Z,65.65
2018-09-27T01:51:01.050Z,66.36
2018-09-27T01:52:01.048Z,66.47
2018-09-27T01:53:01.024Z,66.94
2018-09-27T01:54:01.014Z,66.16
2018-09-27T01:55:01.002Z,65.04
2018-09-27T01:56:00.992Z,65.75
2018-09-27T01:57:01.002Z,65.34
2018-09-27T01:58:00.967Z,65.75
2018-09-27T01:59:00.965Z,65.52
2018-09-27T02:00:00.963Z,65.04
2018-09-27T02:01:00.935Z,65.45
2018-09-27T02:02:00.925Z,66.06
2018-09-27T02:03:00.915Z,66.97
2018-09-27T02:04:00.948Z,67.79
2018-09-27T02:05:00.893Z,67.69
2018-09-27T02:06:00.885Z,66.57
2018-09-27T02:07:00.886Z,66.97
2018-09-27T02:08:00.858Z,66.44
2018-09-27T02:09:00.849Z,65.95
2018-09-27T02:10:00.837Z,65.65
2018-09-27T02:11:00.825Z,66.36
2018-09-27T02:12:00.836Z,66.16
2018-09-27T02:13:00.804Z,66.88
2018-09-27T02:14:00.795Z,65.95
2018-09-27T02:15:00.785Z,66.36
2018-09-27T02:16:00.774Z,67.18
2018-09-27T02:17:00.787Z,66.97
2018-09-27T02:18:00.763Z,67.38
2018-09-27T02:19:00.740Z,66.97
2018-09-27T02:20:00.728Z,66.16
2018-09-27T02:21:00.719Z,66.06
2018-09-27T02:22:00.705Z,67.76
2018-09-27T02:23:00.713Z,66.77
2018-09-27T02:24:00.685Z,67.49
2018-09-27T02:25:00.672Z,67.18
2018-09-27T02:26:00.662Z,67.08
2018-09-27T02:27:00.653Z,67.38
2018-09-27T02:28:00.657Z,67.49
2018-09-27T02:29:00.631Z,66.57
2018-09-27T02:30:00.623Z,66.57
2018-09-27T02:31:00.609Z,66.33
2018-09-27T02:32:00.597Z,67.38
2018-09-27T02:33:00.586Z,67.79
2018-09-27T02:34:00.628Z,67.35
2018-09-27T02:35:00.562Z,67.08
2018-09-27T02:36:00.553Z,67.69
2018-09-27T02:37:00.543Z,67.29
2018-09-27T02:38:00.542Z,67.49
2018-09-27T02:39:00.536Z,68.20
2018-09-27T02:40:00.508Z,67.38
2018-09-27T02:41:00.498Z,68.37
2018-09-27T02:42:00.488Z,67.59
2018-09-27T02:43:00.476Z,67.29
2018-09-27T02:44:00.484Z,67.86
2018-09-27T02:45:00.453Z,66.88
2018-09-27T02:46:00.451Z,67.18
2018-09-27T02:47:00.441Z,67.69
2018-09-27T02:48:00.428Z,67.69
2018-09-27T02:49:00.419Z,67.29
2018-09-27T02:50:00.414Z,66.97
2018-09-27T02:51:00.390Z,67.59
2018-09-27T02:52:00.387Z,66.88
2018-09-27T02:53:00.367Z,67.38
2018-09-27T02:54:00.359Z,67.29
2018-09-27T02:55:00.351Z,67.90
2018-09-27T02:56:00.333Z,68.20
2018-09-27T02:57:00.336Z,67.08
2018-09-27T02:58:00.312Z,68.61
2018-09-27T02:59:00.301Z,68.10
2018-09-27T03:00:00.292Z,67.90
2018-09-27T03:01:00.290Z,66.57
2018-09-27T03:02:00.267Z,66.88
2018-09-27T03:03:00.270Z,67.69
2018-09-27T03:04:00.246Z,68.10
2018-09-27T03:05:00.252Z,67.90
2018-09-27T03:06:00.222Z,68.10
2018-09-27T03:07:00.211Z,67.99
2018-09-27T03:08:00.213Z,67.38
2018-09-27T03:09:00.188Z,68.61
2018-09-27T03:10:00.197Z,67.90
2018-09-27T03:11:00.170Z,68.10
2018-09-27T03:12:00.156Z,69.02
2018-09-27T03:13:00.146Z,69.42
2018-09-27T03:14:00.278Z,68.10
2018-09-27T03:15:00.125Z,67.38
2018-09-27T03:16:00.116Z,67.08
2018-09-27T03:17:00.104Z,67.08
2018-09-27T03:18:00.109Z,67.69
2018-09-27T03:19:00.096Z,68.20
2018-09-27T03:20:00.068Z,67.79
2018-09-27T03:21:00.077Z,67.29
2018-09-27T03:22:00.048Z,67.90
2018-09-27T03:23:00.037Z,68.51
2018-09-27T03:24:00.027Z,67.90
2018-09-27T03:25:00.028Z,68.27
2018-09-27T03:26:00.004Z,67.35
2018-09-27T03:26:59.995Z,67.49
2018-09-27T03:27:59.983Z,69.19
2018-09-27T03:29:00.011Z,68.27
2018-09-27T03:29:59.959Z,67.38
2018-09-27T03:30:59.950Z,67.38
2018-09-27T03:31:59.964Z,67.66
2018-09-27T03:32:59.928Z,67.59
2018-09-27T03:33:59.917Z,66.57
2018-09-27T03:34:59.919Z,66.44
2018-09-27T03:35:59.893Z,66.97
2018-09-27T03:36:59.887Z,66.47
2018-09-27T03:37:59.890Z,66.97
2018-09-27T03:38:59.861Z,67.46
2018-09-27T03:39:59.894Z,67.90
2018-09-27T03:40:59.837Z,67.90
2018-09-27T03:41:59.830Z,67.69
2018-09-27T03:42:59.821Z,67.49
2018-09-27T03:43:59.821Z,67.99
2018-09-27T03:44:59.813Z,67.79
2018-09-27T03:45:59.784Z,67.38
2018-09-27T03:46:59.781Z,67.49
2018-09-27T03:47:59.762Z,67.38
2018-09-27T03:48:59.753Z,67.18
2018-09-27T03:49:59.778Z,66.97
2018-09-27T03:50:59.756Z,67.38
2018-09-27T03:51:59.719Z,66.88
2018-09-27T03:52:59.708Z,66.88
2018-09-27T03:53:59.698Z,67.86
2018-09-27T03:54:59.685Z,67.99
2018-09-27T03:55:59.749Z,66.47
2018-09-27T03:56:59.664Z,66.88
2018-09-27T03:57:59.651Z,67.49
2018-09-27T03:58:59.642Z,67.79
2018-09-27T03:59:59.632Z,66.77
2018-09-27T04:00:59.648Z,66.88
2018-09-27T04:01:59.612Z,67.08
2018-09-27T04:02:59.597Z,68.10
2018-09-27T04:03:59.586Z,67.49
2018-09-27T04:04:59.577Z,67.49
2018-09-27T04:05:59.564Z,67.46
2018-09-27T04:06:59.574Z,67.38
2018-09-27T04:07:59.543Z,66.47
2018-09-27T04:08:59.535Z,66.77
2018-09-27T04:09:59.523Z,66.57
2018-09-27T04:10:59.513Z,67.35
2018-09-27T04:11:59.515Z,67.49
2018-09-27T04:12:59.511Z,67.08
2018-09-27T04:13:59.480Z,66.27
2018-09-27T04:14:59.466Z,66.88
2018-09-27T04:15:59.453Z,66.88
2018-09-27T04:16:59.442Z,66.57
2018-09-27T04:17:59.434Z,66.47
2018-09-27T04:18:59.432Z,66.47
2018-09-27T04:19:59.411Z,67.08
2018-09-27T04:20:59.400Z,67.59
2018-09-27T04:21:59.393Z,67.08
2018-09-27T04:22:59.389Z,67.49
2018-09-27T04:23:59.410Z,67.29
2018-09-27T04:24:59.387Z,66.88
2018-09-27T04:25:59.343Z,67.35
2018-09-27T04:26:59.336Z,67.38
2018-09-27T04:27:59.332Z,68.40
2018-09-27T04:28:59.314Z,68.30
2018-09-27T04:29:59.302Z,67.08
2018-09-27T04:30:59.290Z,66.97
2018-09-27T04:31:59.301Z,66.36
2018-09-27T04:32:59.279Z,66.97
2018-09-27T04:33:59.258Z,66.47
2018-09-27T04:34:59.244Z,66.47
2018-09-27T04:35:59.246Z,66.88
2018-09-27T04:36:59.224Z,66.36
2018-09-27T04:37:59.214Z,66.36
2018-09-27T04:38:59.213Z,66.77
2018-09-27T04:39:59.191Z,66.27
2018-09-27T04:40:59.236Z,66.57
2018-09-27T04:41:59.184Z,66.16
2018-09-27T04:42:59.157Z,65.95
2018-09-27T04:43:59.144Z,66.27
2018-09-27T04:44:59.147Z,65.75
2018-09-27T04:45:59.125Z,67.18
2018-09-27T04:46:59.114Z,66.47
2018-09-27T04:47:59.114Z,66.36
2018-09-27T04:48:59.097Z,66.97
2018-09-27T04:49:59.103Z,66.97
2018-09-27T04:50:59.070Z,67.69
2018-09-27T04:51:59.060Z,67.38
2018-09-27T04:52:59.047Z,67.49
2018-09-27T04:53:59.038Z,67.38
2018-09-27T04:54:59.025Z,67.49
2018-09-27T04:55:59.039Z,67.86
2018-09-27T04:56:59.009Z,67.99
2018-09-27T04:57:58.994Z,67.66
2018-09-27T04:58:58.983Z,67.08
2018-09-27T04:59:59.002Z,68.07
2018-09-27T05:00:58.963Z,68.68
2018-09-27T05:01:58.962Z,68.10
2018-09-27T05:02:58.938Z,66.97
2018-09-27T05:03:58.928Z,67.15
2018-09-27T05:04:58.927Z,67.38
2018-09-27T05:05:58.907Z,66.85
2018-09-27T05:06:58.896Z,66.47
2018-09-27T05:07:58.885Z,67.18
2018-09-27T05:08:58.876Z,66.16
2018-09-27T05:09:58.898Z,66.33
2018-09-27T05:10:58.853Z,66.77
2018-09-27T05:11:58.839Z,67.05
2018-09-27T05:12:58.829Z,66.97
2018-09-27T05:13:58.820Z,67.29
2018-09-27T05:14:58.824Z,66.94
2018-09-27T05:15:58.857Z,67.49
2018-09-27T05:16:58.785Z,67.69
2018-09-27T05:17:58.776Z,67.55
2018-09-27T05:18:58.763Z,67.35
2018-09-27T05:19:58.770Z,67.55
2018-09-27T05:20:58.745Z,68.27
2018-09-27T05:21:58.746Z,68.37
2018-09-27T05:22:58.721Z,67.46
2018-09-27T05:23:58.708Z,67.96
2018-09-27T05:24:58.699Z,68.37
2018-09-27T05:25:58.709Z,65.92
2018-09-27T05:26:58.677Z,66.13
2018-09-27T05:27:58.665Z,65.83
2018-09-27T05:28:58.669Z,65.72
2018-09-27T05:29:58.649Z,66.85
2018-09-27T05:30:58.633Z,66.23
2018-09-27T05:31:58.623Z,66.94
2018-09-27T05:32:58.639Z,66.44
2018-09-27T05:33:58.603Z,66.64
2018-09-27T05:34:58.587Z,66.13
2018-09-27T05:35:58.579Z,66.47
2018-09-27T05:36:58.569Z,67.25
2018-09-27T05:37:58.561Z,67.66
2018-09-27T05:38:58.560Z,68.27
2018-09-27T05:39:58.536Z,67.76
2018-09-27T05:40:58.567Z,67.86
2018-09-27T05:41:58.510Z,67.35
2018-09-27T05:42:58.546Z,66.13
2018-09-27T05:43:58.525Z,66.33
2018-09-27T05:44:58.493Z,67.05
2018-09-27T05:45:58.469Z,67.35
2018-09-27T05:46:58.472Z,66.03
2018-09-27T05:47:58.445Z,66.03
2018-09-27T05:48:58.435Z,66.54
2018-09-27T05:49:58.482Z,68.27
2018-09-27T05:50:58.435Z,67.35
2018-09-27T05:51:58.404Z,66.13
2018-09-27T05:52:58.392Z,66.03
2018-09-27T05:53:58.380Z,66.23
2018-09-27T05:54:58.368Z,66.33
2018-09-27T05:55:58.451Z,66.13
2018-09-27T05:56:58.362Z,65.83
2018-09-27T05:57:58.336Z,65.62
2018-09-27T05:58:58.327Z,65.62
2018-09-27T05:59:58.315Z,65.72
2018-09-27T06:00:58.302Z,66.44
2018-09-27T06:01:58.349Z,65.39
2018-09-27T06:02:58.281Z,66.13
2018-09-27T06:03:58.269Z,65.72
2018-09-27T06:04:58.258Z,66.03
2018-09-27T06:05:58.252Z,65.62
2018-09-27T06:06:58.251Z,65.72
2018-09-27T06:07:58.224Z,65.62
2018-09-27T06:08:58.216Z,65.83
2018-09-27T06:09:58.205Z,65.49
2018-09-27T06:10:58.193Z,65.72
2018-09-27T06:11:58.197Z,65.89
2018-09-27T06:12:58.169Z,65.62
2018-09-27T06:13:58.175Z,65.08
2018-09-27T06:14:58.148Z,65.62
2018-09-27T06:15:58.157Z,66.10
2018-09-27T06:16:58.126Z,66.94
2018-09-27T06:17:58.115Z,66.54
2018-09-27T06:18:58.116Z,66.71
2018-09-27T06:19:58.094Z,66.20
2018-09-27T06:20:58.096Z,65.59
2018-09-27T06:21:58.073Z,65.39
2018-09-27T06:22:58.060Z,65.89
2018-09-27T06:23:58.048Z,65.28
2018-09-27T06:24:58.060Z,65.49
2018-09-27T06:25:58.046Z,64.98
2018-09-27T06:26:58.043Z,65.39
2018-09-27T06:27:58.005Z,65.89
2018-09-27T06:28:57.995Z,65.77
2018-09-27T06:29:57.982Z,65.69
2018-09-27T06:30:57.986Z,64.98
2018-09-27T06:31:57.963Z,65.49
2018-09-27T06:32:57.950Z,65.56
2018-09-27T06:33:57.940Z,65.77
2018-09-27T06:34:57.962Z,65.25
2018-09-27T06:35:57.935Z,65.66
2018-09-27T06:36:57.906Z,65.66
2018-09-27T06:37:57.896Z,65.36
2018-09-27T06:38:57.885Z,65.86
2018-09-27T06:39:57.873Z,64.75
2018-09-27T06:40:57.876Z,64.64
2018-09-27T06:41:57.850Z,64.81
2018-09-27T06:42:57.841Z,64.20
2018-09-27T06:43:57.828Z,64.20
2018-09-27T06:44:57.819Z,64.81
2018-09-27T06:45:57.823Z,64.92
2018-09-27T06:46:57.797Z,64.41
2018-09-27T06:47:57.785Z,63.87
2018-09-27T06:48:57.775Z,63.87
2018-09-27T06:49:57.764Z,64.38
2018-09-27T06:50:57.765Z,63.26
2018-09-27T06:51:57.779Z,62.65
2018-09-27T06:52:57.730Z,63.26
2018-09-27T06:53:57.717Z,62.75
2018-09-27T06:54:57.806Z,63.23
2018-09-27T06:55:57.901Z,62.52
2018-09-27T06:56:57.700Z,62.96
2018-09-27T06:57:57.709Z,63.54
2018-09-27T06:58:57.663Z,62.32
2018-09-27T06:59:57.656Z,62.52
2018-09-27T07:00:57.725Z,63.13
2018-09-27T07:01:57.629Z,63.43
2018-09-27T07:02:57.617Z,63.43
2018-09-27T07:03:57.616Z,63.64
2018-09-27T07:04:57.652Z,63.23
2018-09-27T07:05:57.600Z,62.52
2018-09-27T07:06:57.576Z,63.74
2018-09-27T07:07:57.580Z,63.81
2018-09-27T07:08:57.550Z,63.54
2018-09-27T07:09:57.540Z,62.70
2018-09-27T07:10:57.529Z,62.82
2018-09-27T07:11:57.586Z,62.29
2018-09-27T07:12:57.509Z,62.39
2018-09-27T07:13:57.496Z,63.10
2018-09-27T07:14:57.484Z,62.70
2018-09-27T07:15:57.475Z,63.40
2018-09-27T07:16:57.464Z,62.97
2018-09-27T07:17:57.465Z,63.68
2018-09-27T07:18:57.443Z,63.58
2018-09-27T07:19:57.433Z,63.07
2018-09-27T07:20:57.432Z,62.76
2018-09-27T07:21:57.410Z,63.24
2018-09-27T07:22:57.399Z,62.46
2018-09-27T07:23:57.386Z,62.36
2018-09-27T07:24:57.402Z,63.17
2018-09-27T07:25:57.367Z,62.16
2018-09-27T07:26:57.401Z,62.74
2018-09-27T07:27:57.371Z,62.84
2018-09-27T07:28:57.333Z,61.11
2018-09-27T07:29:57.341Z,61.41
2018-09-27T07:30:57.365Z,62.23
2018-09-27T07:31:57.304Z,60.98
2018-09-27T07:32:57.289Z,60.68
2018-09-27T07:33:57.295Z,60.50
2018-09-27T07:34:57.269Z,60.60
2018-09-27T07:35:57.277Z,61.59
2018-09-27T07:36:57.246Z,60.58
2018-09-27T07:37:57.236Z,60.47
2018-09-27T07:38:57.238Z,60.68
2018-09-27T07:39:57.213Z,60.07
2018-09-27T07:40:57.202Z,60.47
2018-09-27T07:41:57.191Z,60.04
2018-09-27T07:42:57.179Z,61.76
2018-09-27T07:43:57.186Z,60.55
2018-09-27T07:44:57.158Z,60.04
2018-09-27T07:45:57.153Z,59.03
2018-09-27T07:46:57.134Z,59.30
2018-09-27T07:47:57.120Z,57.37
2018-09-27T07:48:57.111Z,57.98
2018-09-27T07:49:57.116Z,58.29
2018-09-27T07:50:57.104Z,59.30
2018-09-27T07:51:57.084Z,57.88
2018-09-27T07:52:57.066Z,58.06
2018-09-27T07:53:57.056Z,56.84
2018-09-27T07:54:57.071Z,57.04
2018-09-27T07:55:57.053Z,57.65
2018-09-27T07:56:57.024Z,56.74
2018-09-27T07:57:57.012Z,56.95
2018-09-27T07:58:56.999Z,56.64
2018-09-27T07:59:56.990Z,55.73
2018-09-27T08:00:56.985Z,56.03
2018-09-27T08:01:56.980Z,56.34
2018-09-27T08:02:57.066Z,56.82
2018-09-27T08:03:56.947Z,56.23
2018-09-27T08:04:56.938Z,56.10
2018-09-27T08:05:56.923Z,57.32
2018-09-27T08:06:56.927Z,55.60
2018-09-27T08:07:56.936Z,56.38
2018-09-27T08:08:56.891Z,55.50
2018-09-27T08:09:56.878Z,55.37
2018-09-27T08:10:56.932Z,55.85
2018-09-27T08:11:56.888Z,55.24
2018-09-27T08:12:56.847Z,55.44
2018-09-27T08:13:56.851Z,54.82
2018-09-27T08:14:56.822Z,55.11
2018-09-27T08:15:56.812Z,54.51
2018-09-27T08:16:56.880Z,55.02
2018-09-27T08:17:56.809Z,55.09
2018-09-27T08:18:56.798Z,54.91
2018-09-27T08:19:56.795Z,54.18
2018-09-27T08:20:56.838Z,54.49
2018-09-27T08:21:56.747Z,53.27
2018-09-27T08:22:56.757Z,54.49
2018-09-27T08:23:56.750Z,54.58
2018-09-27T08:24:56.731Z,54.28
2018-09-27T08:25:56.704Z,53.88
2018-09-27T08:26:56.693Z,54.16
2018-09-27T08:27:56.685Z,53.65
2018-09-27T08:28:56.672Z,53.05
2018-09-27T08:29:56.676Z,53.05
2018-09-27T08:30:56.772Z,53.05
2018-09-27T08:31:56.642Z,51.63
2018-09-27T08:32:56.629Z,53.25
2018-09-27T08:33:56.618Z,52.94
2018-09-27T08:34:56.607Z,53.22
2018-09-27T08:35:56.616Z,53.02
2018-09-27T08:36:56.612Z,52.72
2018-09-27T08:37:56.600Z,53.02
2018-09-27T08:38:56.563Z,51.30
2018-09-27T08:39:56.552Z,51.68
2018-09-27T08:40:56.541Z,51.58
2018-09-27T08:41:56.530Z,51.48
2018-09-27T08:42:56.537Z,52.47
2018-09-27T08:43:56.511Z,51.45
2018-09-27T08:44:56.658Z,49.94
2018-09-27T08:45:56.547Z,49.74
2018-09-27T08:46:56.477Z,49.94
2018-09-27T08:47:56.466Z,51.93
2018-09-27T08:48:56.470Z,51.53
2018-09-27T08:49:56.444Z,49.39
2018-09-27T08:50:56.431Z,49.31
2018-09-27T08:51:56.425Z,49.69
2018-09-27T08:52:56.412Z,49.67
2018-09-27T08:53:56.415Z,49.16
2018-09-27T08:54:56.388Z,48.46
2018-09-27T08:55:56.498Z,49.07
2018-09-27T08:56:56.367Z,49.16
2018-09-27T08:57:56.357Z,49.47
2018-09-27T08:58:56.389Z,49.55
2018-09-27T08:59:56.334Z,49.73
2018-09-27T09:00:56.323Z,49.12
2018-09-27T09:01:56.313Z,48.21
2018-09-27T09:02:56.301Z,48.99
2018-09-27T09:03:56.360Z,49.18
2018-09-27T09:04:56.299Z,48.37
2018-09-27T09:05:56.273Z,47.85
2018-09-27T09:06:56.260Z,46.64
2018-09-27T09:07:56.251Z,47.54
2018-09-27T09:08:56.237Z,47.94
2018-09-27T09:09:56.225Z,47.42
2018-09-27T09:10:56.235Z,47.72
2018-09-27T09:11:56.255Z,48.00
2018-09-27T09:12:56.190Z,47.19
2018-09-27T09:13:56.182Z,46.29
2018-09-27T09:14:56.169Z,47.77
2018-09-27T09:15:56.170Z,45.84
2018-09-27T09:16:56.147Z,46.95
2018-09-27T09:17:56.135Z,45.62
2018-09-27T09:18:56.126Z,44.54
2018-09-27T09:19:56.115Z,44.44
2018-09-27T09:20:56.138Z,45.45
2018-09-27T09:21:56.091Z,45.84
2018-09-27T09:22:56.081Z,45.14
2018-09-27T09:23:56.074Z,45.95
2018-09-27T09:24:56.061Z,46.04
2018-09-27T09:25:56.087Z,44.54
2018-09-27T09:26:56.054Z,46.15
2018-09-27T09:27:56.030Z,45.84
2018-09-27T09:28:56.020Z,46.33
2018-09-27T09:29:56.047Z,46.11
2018-09-27T09:30:56.043Z,45.68
2018-09-27T09:31:56.009Z,45.46
2018-09-27T09:32:55.977Z,46.06
2018-09-27T09:33:55.981Z,44.43
2018-09-27T09:34:55.955Z,44.12
2018-09-27T09:35:56.003Z,43.63
2018-09-27T09:36:55.946Z,43.33
2018-09-27T09:37:55.924Z,44.04
2018-09-27T09:38:55.925Z,43.43
2018-09-27T09:39:55.902Z,43.54
2018-09-27T09:40:55.889Z,43.55
2018-09-27T09:41:55.881Z,43.38
2018-09-27T09:42:55.869Z,46.06
2018-09-27T09:43:55.875Z,44.06
2018-09-27T09:44:55.845Z,43.24
2018-09-27T09:45:55.837Z,43.63
2018-09-27T09:46:55.827Z,42.54
2018-09-27T09:47:55.817Z,44.04
2018-09-27T09:48:55.821Z,43.51
2018-09-27T09:49:55.867Z,43.71
2018-09-27T09:50:55.783Z,42.71
2018-09-27T09:51:55.772Z,43.51
2018-09-27T09:52:55.761Z,44.21
2018-09-27T09:53:55.765Z,44.70
2018-09-27T09:54:55.739Z,42.97
2018-09-27T09:55:55.731Z,43.35
2018-09-27T09:56:55.732Z,42.83
2018-09-27T09:57:55.725Z,41.52
2018-09-27T09:58:55.701Z,40.81
2018-09-27T09:59:55.728Z,40.72
2018-09-27T10:00:55.682Z,40.30
2018-09-27T10:01:55.667Z,38.90
2018-09-27T10:02:55.657Z,39.90
2018-09-27T10:03:55.644Z,40.38
2018-09-27T10:04:55.634Z,40.88
2018-09-27T10:05:55.644Z,39.58
2018-09-27T10:06:55.613Z,39.80
2018-09-27T10:07:55.603Z,38.00
2018-09-27T10:08:55.653Z,37.40
2018-09-27T10:09:55.583Z,37.90
2018-09-27T10:10:55.569Z,38.12
2018-09-27T10:11:55.581Z,39.20
2018-09-27T10:12:55.552Z,37.21
2018-09-27T10:13:55.537Z,38.40
2018-09-27T10:14:55.568Z,37.60
2018-09-27T10:15:55.529Z,38.80
2018-09-27T10:16:55.516Z,37.88
2018-09-27T10:17:55.495Z,37.79
2018-09-27T10:18:55.484Z,37.49
2018-09-27T10:19:55.486Z,37.08
2018-09-27T10:20:55.465Z,38.18
2018-09-27T10:21:55.526Z,37.19
2018-09-27T10:22:55.444Z,37.27
2018-09-27T10:23:55.430Z,37.97
2018-09-27T10:24:55.439Z,37.37
2018-09-27T10:25:55.408Z,37.65
2018-09-27T10:26:55.398Z,37.45
2018-09-27T10:27:55.392Z,36.95
2018-09-27T10:28:55.381Z,37.43
2018-09-27T10:29:55.386Z,37.83
2018-09-27T10:30:55.356Z,37.81
2018-09-27T10:31:55.345Z,34.92
2018-09-27T10:32:55.338Z,34.83
2018-09-27T10:33:55.324Z,34.03
2018-09-27T10:34:55.316Z,32.86
2018-09-27T10:35:55.318Z,34.34
2018-09-27T10:36:55.299Z,33.25
2018-09-27T10:37:55.281Z,33.97
2018-09-27T10:38:55.275Z,33.26
2018-09-27T10:39:55.279Z,33.97
2018-09-27T10:40:55.250Z,33.65
2018-09-27T10:41:55.239Z,33.26
2018-09-27T10:42:55.228Z,33.86
2018-09-27T10:43:55.225Z,32.98
2018-09-27T10:44:55.246Z,33.78
2018-09-27T10:45:55.210Z,34.08
2018-09-27T10:46:55.186Z,34.08
2018-09-27T10:47:55.177Z,34.58
2018-09-27T10:48:55.167Z,34.48
2018-09-27T10:49:55.153Z,33.26
2018-09-27T10:50:55.159Z,33.48
2018-09-27T10:51:55.133Z,32.97
2018-09-27T10:52:55.122Z,32.07
2018-09-27T10:53:55.120Z,31.07
2018-09-27T10:54:55.100Z,32.87
2018-09-27T10:55:55.150Z,32.97
2018-09-27T10:56:55.083Z,32.15
2018-09-27T10:57:55.085Z,33.25
2018-09-27T10:58:55.061Z,32.56
2018-09-27T10:59:55.055Z,34.05
2018-09-27T11:00:55.038Z,31.86
2018-09-27T11:01:55.031Z,31.26
2018-09-27T11:02:55.083Z,31.36
2018-09-27T11:03:55.017Z,32.64
2018-09-27T11:04:54.995Z,31.15
2018-09-27T11:05:54.985Z,30.15
2018-09-27T11:06:54.991Z,29.74
2018-09-27T11:07:54.966Z,29.95
2018-09-27T11:08:54.974Z,30.05
2018-09-27T11:09:54.942Z,29.95
2018-09-27T11:10:54.940Z,28.56
2018-09-27T11:11:54.921Z,27.26
2018-09-27T11:12:54.911Z,28.56
2018-09-27T11:13:54.900Z,26.87
2018-09-27T11:14:54.915Z,25.87
2018-09-27T11:15:54.878Z,28.06
2018-09-27T11:16:54.879Z,27.66
2018-09-27T11:17:54.858Z,27.66
2018-09-27T11:18:54.848Z,27.65
2018-09-27T11:19:54.838Z,27.55
2018-09-27T11:20:54.842Z,28.55
2018-09-27T11:21:54.915Z,28.63
2018-09-27T11:22:54.809Z,29.72
2018-09-27T11:23:54.797Z,29.31
2018-09-27T11:24:54.787Z,26.84
2018-09-27T11:25:54.776Z,26.84
2018-09-27T11:26:54.762Z,27.25
2018-09-27T11:27:54.768Z,27.65
2018-09-27T11:28:54.768Z,28.05
2018-09-27T11:29:54.735Z,27.94
2018-09-27T11:30:54.724Z,26.75
2018-09-27T11:31:54.726Z,26.86
2018-09-27T11:32:54.753Z,27.15
2018-09-27T11:33:54.704Z,28.23
2018-09-27T11:34:54.681Z,26.95
2018-09-27T11:35:54.669Z,26.94
2018-09-27T11:36:54.660Z,27.05
2018-09-27T11:37:54.669Z,27.45
2018-09-27T11:38:54.640Z,28.44
2018-09-27T11:39:54.629Z,26.25
2018-09-27T11:40:54.615Z,27.95
2018-09-27T11:41:54.719Z,27.35
2018-09-27T11:42:54.652Z,26.95
2018-09-27T11:43:54.694Z,28.46
2018-09-27T11:44:54.603Z,28.25
2018-09-27T11:45:54.563Z,28.53
2018-09-27T11:46:54.555Z,26.84
2018-09-27T11:47:54.560Z,28.43
2018-09-27T11:48:54.608Z,27.55
2018-09-27T11:49:54.661Z,27.95
2018-09-27T11:50:54.515Z,28.05
2018-09-27T11:51:54.500Z,26.94
2018-09-27T11:52:54.492Z,27.24
2018-09-27T11:53:54.481Z,27.55
2018-09-27T11:54:54.543Z,27.45
2018-09-27T11:55:54.470Z,26.45
2018-09-27T11:56:54.452Z,27.96
2018-09-27T11:57:54.440Z,25.87
2018-09-27T11:58:54.455Z,28.17
2018-09-27T11:59:54.454Z,28.67
2018-09-27T12:00:54.406Z,26.88
2018-09-27T12:01:54.420Z,28.47
2018-09-27T12:02:54.386Z,27.76
2018-09-27T12:03:54.374Z,29.16
2018-09-27T12:04:54.366Z,28.25
2018-09-27T12:05:54.386Z,27.95
2018-09-27T12:06:54.342Z,26.95
2018-09-27T12:07:54.332Z,27.34
2018-09-27T12:08:54.324Z,29.82
2018-09-27T12:09:54.311Z,27.33
2018-09-27T12:10:54.342Z,25.63
2018-09-27T12:11:54.352Z,24.34
2018-09-27T12:12:54.279Z,24.84
2018-09-27T12:13:54.271Z,27.12
2018-09-27T12:14:54.261Z,25.65
2018-09-27T12:15:54.248Z,26.56
2018-09-27T12:16:54.252Z,25.76
2018-09-27T12:17:54.226Z,26.35
2018-09-27T12:18:54.237Z,24.35
2018-09-27T12:19:54.219Z,25.46
2018-09-27T12:20:54.203Z,26.25
2018-09-27T12:21:54.189Z,24.85
2018-09-27T12:22:54.232Z,25.65
2018-09-27T12:23:54.180Z,26.34
2018-09-27T12:24:54.154Z,24.74
2018-09-27T12:25:54.144Z,25.24
2018-09-27T12:26:54.149Z,25.34
2018-09-27T12:27:54.124Z,25.04
2018-09-27T12:28:54.112Z,26.23
2018-09-27T12:29:54.141Z,25.73
2018-09-27T12:30:54.127Z,25.84
2018-09-27T12:31:54.081Z,27.01
2018-09-27T12:32:54.072Z,25.23
2018-09-27T12:33:54.064Z,23.72
2018-09-27T12:34:54.050Z,23.43
2018-09-27T12:35:54.054Z,24.22
2018-09-27T12:36:54.028Z,25.42
2018-09-27T12:37:54.019Z,24.32
2018-09-27T12:38:54.060Z,25.31
2018-09-27T12:39:54.013Z,26.29
2018-09-27T12:40:53.988Z,25.30
2018-09-27T12:41:54.066Z,23.91
2018-09-27T12:42:53.969Z,23.32
2018-09-27T12:43:53.969Z,22.92
2018-09-27T12:44:53.962Z,23.81
2018-09-27T12:45:54.024Z,23.71
2018-09-27T12:46:54.013Z,23.91
2018-09-27T12:47:53.916Z,25.30
2018-09-27T12:48:53.986Z,23.41
2018-09-27T12:49:53.927Z,23.91
2018-09-27T12:50:53.917Z,23.41
2018-09-27T12:51:53.982Z,23.12